sensor_id;sensor_type;location;lat;lon;timestamp;P1;durP1;ratioP1;P2;durP2;ratioP2
6937;SDS011;40040;42.706;23.372;2022-08-25T00:01:42;17.30;;;8.88;;
6937;SDS011;40040;42.706;23.372;2022-08-25T00:04:12;14.75;;;9.82;;
6937;SDS011;40040;42.706;23.372;2022-08-25T00:06:42;19.15;;;9.43;;
6937;SDS011;40040;42.706;23.372;2022-08-25T00:09:11;19.55;;;9.13;;
6937;SDS011;40040;42.706;23.372;2022-08-25T00:11:39;15.70;;;9.00;;
6937;SDS011;40040;42.706;23.372;2022-08-25T00:14:09;13.90;;;8.63;;
6937;SDS011;40040;42.706;23.372;2022-08-25T00:16:38;15.30;;;9.27;;
6937;SDS011;40040;42.706;23.372;2022-08-25T00:19:06;16.08;;;9.18;;
6937;SDS011;40040;42.706;23.372;2022-08-25T00:21:34;14.20;;;8.40;;
6937;SDS011;40040;42.706;23.372;2022-08-25T00:24:03;16.52;;;9.07;;
6937;SDS011;40040;42.706;23.372;2022-08-25T00:26:30;17.85;;;9.02;;
6937;SDS011;40040;42.706;23.372;2022-08-25T00:28:57;17.60;;;9.48;;
6937;SDS011;40040;42.706;23.372;2022-08-25T00:31:24;20.13;;;9.55;;
6937;SDS011;40040;42.706;23.372;2022-08-25T00:33:51;14.93;;;9.05;;
6937;SDS011;40040;42.706;23.372;2022-08-25T00:36:19;21.30;;;9.02;;
6937;SDS011;40040;42.706;23.372;2022-08-25T00:38:47;15.98;;;9.27;;
6937;SDS011;40040;42.706;23.372;2022-08-25T00:41:17;20.83;;;9.48;;
6937;SDS011;40040;42.706;23.372;2022-08-25T00:43:47;18.67;;;9.68;;
6937;SDS011;40040;42.706;23.372;2022-08-25T00:46:18;17.42;;;9.13;;
6937;SDS011;40040;42.706;23.372;2022-08-25T00:48:48;14.48;;;9.32;;
6937;SDS011;40040;42.706;23.372;2022-08-25T00:51:20;14.63;;;10.07;;
6937;SDS011;40040;42.706;23.372;2022-08-25T00:53:52;16.13;;;10.00;;
6937;SDS011;40040;42.706;23.372;2022-08-25T00:56:21;16.15;;;9.23;;
6937;SDS011;40040;42.706;23.372;2022-08-25T00:58:49;17.15;;;9.68;;
6937;SDS011;40040;42.706;23.372;2022-08-25T01:01:17;17.20;;;9.85;;
6937;SDS011;40040;42.706;23.372;2022-08-25T01:03:43;20.38;;;10.32;;
6937;SDS011;40040;42.706;23.372;2022-08-25T01:06:10;19.02;;;10.63;;
6937;SDS011;40040;42.706;23.372;2022-08-25T01:08:38;24.77;;;10.48;;
6937;SDS011;40040;42.706;23.372;2022-08-25T01:11:05;19.77;;;11.00;;
6937;SDS011;40040;42.706;23.372;2022-08-25T01:13:37;17.10;;;10.23;;
6937;SDS011;40040;42.706;23.372;2022-08-25T01:16:06;18.77;;;10.35;;
6937;SDS011;40040;42.706;23.372;2022-08-25T01:18:44;17.35;;;9.82;;
6937;SDS011;40040;42.706;23.372;2022-08-25T01:21:14;16.88;;;9.95;;
6937;SDS011;40040;42.706;23.372;2022-08-25T01:23:42;16.80;;;9.45;;
6937;SDS011;40040;42.706;23.372;2022-08-25T01:26:10;17.55;;;9.68;;
6937;SDS011;40040;42.706;23.372;2022-08-25T01:28:40;16.67;;;8.85;;
6937;SDS011;40040;42.706;23.372;2022-08-25T01:31:28;13.00;;;8.45;;
6937;SDS011;40040;42.706;23.372;2022-08-25T01:33:56;15.48;;;8.85;;
6937;SDS011;40040;42.706;23.372;2022-08-25T01:36:26;18.52;;;8.50;;
6937;SDS011;40040;42.706;23.372;2022-08-25T01:38:54;17.90;;;9.20;;
6937;SDS011;40040;42.706;23.372;2022-08-25T01:41:25;18.63;;;8.70;;
6937;SDS011;40040;42.706;23.372;2022-08-25T01:44:01;14.98;;;8.60;;
6937;SDS011;40040;42.706;23.372;2022-08-25T01:46:30;13.38;;;8.48;;
6937;SDS011;40040;42.706;23.372;2022-08-25T01:48:57;15.15;;;8.07;;
6937;SDS011;40040;42.706;23.372;2022-08-25T01:51:27;15.00;;;8.38;;
6937;SDS011;40040;42.706;23.372;2022-08-25T01:53:55;16.90;;;8.30;;
6937;SDS011;40040;42.706;23.372;2022-08-25T01:56:22;16.88;;;8.20;;
6937;SDS011;40040;42.706;23.372;2022-08-25T01:58:49;15.90;;;7.90;;
6937;SDS011;40040;42.706;23.372;2022-08-25T02:01:17;16.98;;;8.20;;
6937;SDS011;40040;42.706;23.372;2022-08-25T02:03:48;15.75;;;9.20;;
6937;SDS011;40040;42.706;23.372;2022-08-25T02:06:18;18.25;;;8.25;;
6937;SDS011;40040;42.706;23.372;2022-08-25T02:08:50;12.85;;;8.32;;
6937;SDS011;40040;42.706;23.372;2022-08-25T02:11:18;14.63;;;8.20;;
6937;SDS011;40040;42.706;23.372;2022-08-25T02:13:48;13.20;;;8.13;;
6937;SDS011;40040;42.706;23.372;2022-08-25T02:16:17;18.60;;;8.15;;
6937;SDS011;40040;42.706;23.372;2022-08-25T02:18:48;17.67;;;7.97;;
6937;SDS011;40040;42.706;23.372;2022-08-25T02:21:15;18.95;;;9.10;;
6937;SDS011;40040;42.706;23.372;2022-08-25T02:23:42;16.17;;;8.93;;
6937;SDS011;40040;42.706;23.372;2022-08-25T02:26:10;19.77;;;9.35;;
6937;SDS011;40040;42.706;23.372;2022-08-25T02:28:40;22.35;;;10.48;;
6937;SDS011;40040;42.706;23.372;2022-08-25T02:31:08;16.45;;;10.75;;
6937;SDS011;40040;42.706;23.372;2022-08-25T02:33:35;18.67;;;11.77;;
6937;SDS011;40040;42.706;23.372;2022-08-25T02:36:02;22.58;;;12.20;;
6937;SDS011;40040;42.706;23.372;2022-08-25T02:38:30;18.00;;;12.10;;
6937;SDS011;40040;42.706;23.372;2022-08-25T02:40:57;18.35;;;11.48;;
6937;SDS011;40040;42.706;23.372;2022-08-25T02:43:26;19.48;;;11.15;;
6937;SDS011;40040;42.706;23.372;2022-08-25T02:45:54;18.35;;;10.50;;
6937;SDS011;40040;42.706;23.372;2022-08-25T02:48:21;20.83;;;9.77;;
6937;SDS011;40040;42.706;23.372;2022-08-25T02:50:49;14.77;;;9.35;;
6937;SDS011;40040;42.706;23.372;2022-08-25T02:53:16;20.02;;;9.95;;
6937;SDS011;40040;42.706;23.372;2022-08-25T02:55:43;19.73;;;9.73;;
6937;SDS011;40040;42.706;23.372;2022-08-25T02:58:11;17.38;;;9.52;;
6937;SDS011;40040;42.706;23.372;2022-08-25T03:00:39;23.15;;;9.82;;
6937;SDS011;40040;42.706;23.372;2022-08-25T03:03:06;14.45;;;9.38;;
6937;SDS011;40040;42.706;23.372;2022-08-25T03:05:33;18.05;;;8.88;;
6937;SDS011;40040;42.706;23.372;2022-08-25T03:08:00;14.95;;;9.05;;
6937;SDS011;40040;42.706;23.372;2022-08-25T03:10:27;16.20;;;9.82;;
6937;SDS011;40040;42.706;23.372;2022-08-25T03:12:54;16.83;;;9.23;;
6937;SDS011;40040;42.706;23.372;2022-08-25T03:15:21;15.38;;;8.95;;
6937;SDS011;40040;42.706;23.372;2022-08-25T03:17:51;19.02;;;8.85;;
6937;SDS011;40040;42.706;23.372;2022-08-25T03:20:18;18.70;;;8.93;;
6937;SDS011;40040;42.706;23.372;2022-08-25T03:22:45;16.05;;;8.32;;
6937;SDS011;40040;42.706;23.372;2022-08-25T03:25:13;17.13;;;8.50;;
6937;SDS011;40040;42.706;23.372;2022-08-25T03:27:58;13.80;;;8.18;;
6937;SDS011;40040;42.706;23.372;2022-08-25T03:30:27;22.60;;;7.90;;
6937;SDS011;40040;42.706;23.372;2022-08-25T03:32:56;14.95;;;8.40;;
6937;SDS011;40040;42.706;23.372;2022-08-25T03:35:23;17.35;;;8.07;;
6937;SDS011;40040;42.706;23.372;2022-08-25T03:37:52;14.57;;;8.88;;
6937;SDS011;40040;42.706;23.372;2022-08-25T03:40:21;15.13;;;8.23;;
6937;SDS011;40040;42.706;23.372;2022-08-25T03:42:48;23.98;;;9.13;;
6937;SDS011;40040;42.706;23.372;2022-08-25T03:45:15;14.32;;;8.65;;
6937;SDS011;40040;42.706;23.372;2022-08-25T03:47:44;12.93;;;8.77;;
6937;SDS011;40040;42.706;23.372;2022-08-25T03:50:13;17.92;;;9.00;;
6937;SDS011;40040;42.706;23.372;2022-08-25T03:52:41;12.88;;;8.35;;
6937;SDS011;40040;42.706;23.372;2022-08-25T03:55:09;14.68;;;8.75;;
6937;SDS011;40040;42.706;23.372;2022-08-25T03:57:38;14.05;;;9.32;;
6937;SDS011;40040;42.706;23.372;2022-08-25T04:00:06;14.05;;;8.88;;
6937;SDS011;40040;42.706;23.372;2022-08-25T04:02:36;19.73;;;9.13;;
6937;SDS011;40040;42.706;23.372;2022-08-25T04:05:03;17.63;;;9.05;;
6937;SDS011;40040;42.706;23.372;2022-08-25T04:07:32;20.08;;;9.07;;
6937;SDS011;40040;42.706;23.372;2022-08-25T04:09:59;15.23;;;8.98;;
6937;SDS011;40040;42.706;23.372;2022-08-25T04:12:27;19.92;;;8.75;;
6937;SDS011;40040;42.706;23.372;2022-08-25T04:14:54;10.13;;;8.65;;
6937;SDS011;40040;42.706;23.372;2022-08-25T04:17:20;15.02;;;9.23;;
6937;SDS011;40040;42.706;23.372;2022-08-25T04:19:47;12.50;;;8.77;;
6937;SDS011;40040;42.706;23.372;2022-08-25T04:22:15;15.02;;;9.30;;
6937;SDS011;40040;42.706;23.372;2022-08-25T04:24:43;16.90;;;9.50;;
6937;SDS011;40040;42.706;23.372;2022-08-25T04:27:10;15.40;;;9.63;;
6937;SDS011;40040;42.706;23.372;2022-08-25T04:29:37;18.33;;;9.35;;
6937;SDS011;40040;42.706;23.372;2022-08-25T04:32:04;12.15;;;8.93;;
6937;SDS011;40040;42.706;23.372;2022-08-25T04:34:30;14.10;;;8.57;;
6937;SDS011;40040;42.706;23.372;2022-08-25T04:36:58;17.83;;;9.43;;
6937;SDS011;40040;42.706;23.372;2022-08-25T04:39:26;15.93;;;9.68;;
6937;SDS011;40040;42.706;23.372;2022-08-25T04:41:55;18.10;;;9.43;;
6937;SDS011;40040;42.706;23.372;2022-08-25T04:44:24;13.85;;;8.85;;
6937;SDS011;40040;42.706;23.372;2022-08-25T04:46:51;18.02;;;9.40;;
6937;SDS011;40040;42.706;23.372;2022-08-25T04:49:18;16.85;;;9.68;;
6937;SDS011;40040;42.706;23.372;2022-08-25T04:51:45;15.85;;;9.32;;
6937;SDS011;40040;42.706;23.372;2022-08-25T04:54:12;14.85;;;8.85;;
6937;SDS011;40040;42.706;23.372;2022-08-25T04:56:45;16.70;;;8.98;;
6937;SDS011;40040;42.706;23.372;2022-08-25T04:59:15;21.33;;;9.38;;
6937;SDS011;40040;42.706;23.372;2022-08-25T05:01:43;16.90;;;8.90;;
6937;SDS011;40040;42.706;23.372;2022-08-25T05:04:11;14.48;;;9.52;;
6937;SDS011;40040;42.706;23.372;2022-08-25T05:06:40;15.38;;;9.38;;
6937;SDS011;40040;42.706;23.372;2022-08-25T05:09:07;16.33;;;9.52;;
6937;SDS011;40040;42.706;23.372;2022-08-25T05:11:34;13.90;;;8.88;;
6937;SDS011;40040;42.706;23.372;2022-08-25T05:14:01;19.13;;;9.73;;
6937;SDS011;40040;42.706;23.372;2022-08-25T05:16:30;14.52;;;9.38;;
6937;SDS011;40040;42.706;23.372;2022-08-25T05:18:57;16.90;;;10.02;;
6937;SDS011;40040;42.706;23.372;2022-08-25T05:21:25;22.27;;;9.57;;
6937;SDS011;40040;42.706;23.372;2022-08-25T05:23:54;17.67;;;9.90;;
6937;SDS011;40040;42.706;23.372;2022-08-25T05:26:23;14.30;;;9.43;;
6937;SDS011;40040;42.706;23.372;2022-08-25T05:28:52;18.50;;;9.45;;
6937;SDS011;40040;42.706;23.372;2022-08-25T05:31:20;14.57;;;9.55;;
6937;SDS011;40040;42.706;23.372;2022-08-25T05:33:50;16.52;;;9.02;;
6937;SDS011;40040;42.706;23.372;2022-08-25T05:36:17;14.93;;;9.45;;
6937;SDS011;40040;42.706;23.372;2022-08-25T05:38:45;18.85;;;9.43;;
6937;SDS011;40040;42.706;23.372;2022-08-25T05:41:12;15.98;;;9.50;;
6937;SDS011;40040;42.706;23.372;2022-08-25T05:43:41;15.52;;;9.18;;
6937;SDS011;40040;42.706;23.372;2022-08-25T05:46:09;18.02;;;9.38;;
6937;SDS011;40040;42.706;23.372;2022-08-25T05:48:37;16.95;;;9.05;;
6937;SDS011;40040;42.706;23.372;2022-08-25T05:51:07;16.05;;;8.95;;
6937;SDS011;40040;42.706;23.372;2022-08-25T05:53:35;15.50;;;8.75;;
6937;SDS011;40040;42.706;23.372;2022-08-25T05:56:04;16.35;;;9.13;;
6937;SDS011;40040;42.706;23.372;2022-08-25T05:58:31;16.63;;;8.90;;
6937;SDS011;40040;42.706;23.372;2022-08-25T06:00:59;15.70;;;9.45;;
6937;SDS011;40040;42.706;23.372;2022-08-25T06:03:47;16.38;;;9.70;;
6937;SDS011;40040;42.706;23.372;2022-08-25T06:06:16;14.93;;;8.90;;
6937;SDS011;40040;42.706;23.372;2022-08-25T06:08:43;13.32;;;8.85;;
6937;SDS011;40040;42.706;23.372;2022-08-25T06:11:10;20.42;;;9.05;;
6937;SDS011;40040;42.706;23.372;2022-08-25T06:13:38;14.65;;;9.57;;
6937;SDS011;40040;42.706;23.372;2022-08-25T06:16:05;20.98;;;10.07;;
6937;SDS011;40040;42.706;23.372;2022-08-25T06:18:32;18.23;;;10.25;;
6937;SDS011;40040;42.706;23.372;2022-08-25T06:21:05;16.55;;;9.80;;
6937;SDS011;40040;42.706;23.372;2022-08-25T06:23:34;20.85;;;10.48;;
6937;SDS011;40040;42.706;23.372;2022-08-25T06:26:02;14.68;;;9.85;;
6937;SDS011;40040;42.706;23.372;2022-08-25T06:28:29;13.77;;;9.63;;
6937;SDS011;40040;42.706;23.372;2022-08-25T06:30:57;18.95;;;10.52;;
6937;SDS011;40040;42.706;23.372;2022-08-25T06:33:25;15.32;;;10.30;;
6937;SDS011;40040;42.706;23.372;2022-08-25T06:35:52;18.42;;;9.93;;
6937;SDS011;40040;42.706;23.372;2022-08-25T06:38:20;19.30;;;10.38;;
6937;SDS011;40040;42.706;23.372;2022-08-25T06:40:49;14.30;;;9.40;;
6937;SDS011;40040;42.706;23.372;2022-08-25T06:43:16;23.55;;;10.52;;
6937;SDS011;40040;42.706;23.372;2022-08-25T06:45:43;17.30;;;9.70;;
6937;SDS011;40040;42.706;23.372;2022-08-25T06:48:10;15.15;;;9.63;;
6937;SDS011;40040;42.706;23.372;2022-08-25T06:50:37;21.60;;;9.77;;
6937;SDS011;40040;42.706;23.372;2022-08-25T06:53:05;16.23;;;9.52;;
6937;SDS011;40040;42.706;23.372;2022-08-25T06:55:33;16.73;;;9.50;;
6937;SDS011;40040;42.706;23.372;2022-08-25T06:58:02;18.48;;;9.40;;
6937;SDS011;40040;42.706;23.372;2022-08-25T07:00:29;16.77;;;9.57;;
6937;SDS011;40040;42.706;23.372;2022-08-25T07:02:57;13.50;;;8.52;;
6937;SDS011;40040;42.706;23.372;2022-08-25T07:05:25;14.68;;;9.00;;
6937;SDS011;40040;42.706;23.372;2022-08-25T07:07:53;13.02;;;8.85;;
6937;SDS011;40040;42.706;23.372;2022-08-25T07:10:20;15.85;;;8.80;;
6937;SDS011;40040;42.706;23.372;2022-08-25T07:12:48;16.70;;;9.48;;
6937;SDS011;40040;42.706;23.372;2022-08-25T07:15:17;18.70;;;10.02;;
6937;SDS011;40040;42.706;23.372;2022-08-25T07:17:45;21.67;;;8.88;;
6937;SDS011;40040;42.706;23.372;2022-08-25T07:20:12;19.92;;;9.65;;
6937;SDS011;40040;42.706;23.372;2022-08-25T07:22:40;16.23;;;9.52;;
6937;SDS011;40040;42.706;23.372;2022-08-25T07:25:07;17.50;;;9.68;;
6937;SDS011;40040;42.706;23.372;2022-08-25T07:27:36;17.42;;;9.50;;
6937;SDS011;40040;42.706;23.372;2022-08-25T07:30:04;14.95;;;9.63;;
6937;SDS011;40040;42.706;23.372;2022-08-25T07:32:34;17.63;;;9.43;;
6937;SDS011;40040;42.706;23.372;2022-08-25T07:35:02;17.52;;;8.73;;
6937;SDS011;40040;42.706;23.372;2022-08-25T07:37:41;14.90;;;8.75;;
6937;SDS011;40040;42.706;23.372;2022-08-25T07:40:10;13.93;;;9.02;;
6937;SDS011;40040;42.706;23.372;2022-08-25T07:42:39;15.60;;;8.55;;
6937;SDS011;40040;42.706;23.372;2022-08-25T07:45:07;22.02;;;8.05;;
6937;SDS011;40040;42.706;23.372;2022-08-25T07:47:37;16.38;;;7.80;;
6937;SDS011;40040;42.706;23.372;2022-08-25T07:50:05;17.10;;;8.20;;
6937;SDS011;40040;42.706;23.372;2022-08-25T07:52:33;15.68;;;8.50;;
6937;SDS011;40040;42.706;23.372;2022-08-25T07:55:00;14.57;;;8.07;;
6937;SDS011;40040;42.706;23.372;2022-08-25T07:57:28;14.15;;;8.23;;
6937;SDS011;40040;42.706;23.372;2022-08-25T07:59:55;13.07;;;7.60;;
6937;SDS011;40040;42.706;23.372;2022-08-25T08:02:23;14.32;;;7.43;;
6937;SDS011;40040;42.706;23.372;2022-08-25T08:04:51;14.43;;;7.65;;
6937;SDS011;40040;42.706;23.372;2022-08-25T08:07:19;11.48;;;7.80;;
6937;SDS011;40040;42.706;23.372;2022-08-25T08:09:48;18.92;;;7.63;;
6937;SDS011;40040;42.706;23.372;2022-08-25T08:12:15;16.88;;;7.57;;
6937;SDS011;40040;42.706;23.372;2022-08-25T08:14:42;16.48;;;7.47;;
6937;SDS011;40040;42.706;23.372;2022-08-25T08:17:09;17.98;;;7.45;;
6937;SDS011;40040;42.706;23.372;2022-08-25T08:19:37;10.60;;;6.85;;
6937;SDS011;40040;42.706;23.372;2022-08-25T08:22:05;14.18;;;7.30;;
6937;SDS011;40040;42.706;23.372;2022-08-25T08:24:35;15.00;;;6.97;;
6937;SDS011;40040;42.706;23.372;2022-08-25T08:27:03;18.15;;;6.72;;
6937;SDS011;40040;42.706;23.372;2022-08-25T08:29:31;16.40;;;6.90;;
6937;SDS011;40040;42.706;23.372;2022-08-25T08:31:58;14.27;;;6.32;;
6937;SDS011;40040;42.706;23.372;2022-08-25T08:34:26;13.00;;;6.53;;
6937;SDS011;40040;42.706;23.372;2022-08-25T08:36:53;13.88;;;6.50;;
6937;SDS011;40040;42.706;23.372;2022-08-25T08:39:22;17.83;;;6.50;;
6937;SDS011;40040;42.706;23.372;2022-08-25T08:41:59;9.63;;;6.20;;
6937;SDS011;40040;42.706;23.372;2022-08-25T08:47:41;20.27;;;6.38;;
6937;SDS011;40040;42.706;23.372;2022-08-25T08:50:22;11.38;;;5.88;;
6937;SDS011;40040;42.706;23.372;2022-08-25T08:52:57;17.00;;;6.28;;
6937;SDS011;40040;42.706;23.372;2022-08-25T08:55:31;13.63;;;6.18;;
6937;SDS011;40040;42.706;23.372;2022-08-25T08:58:03;11.75;;;5.70;;
6937;SDS011;40040;42.706;23.372;2022-08-25T09:00:38;14.57;;;5.60;;
6937;SDS011;40040;42.706;23.372;2022-08-25T09:03:22;16.55;;;6.03;;
6937;SDS011;40040;42.706;23.372;2022-08-25T09:06:00;10.07;;;5.88;;
6937;SDS011;40040;42.706;23.372;2022-08-25T09:08:29;12.85;;;5.88;;
6937;SDS011;40040;42.706;23.372;2022-08-25T09:11:01;11.52;;;5.50;;
6937;SDS011;40040;42.706;23.372;2022-08-25T09:13:36;15.27;;;6.53;;
6937;SDS011;40040;42.706;23.372;2022-08-25T09:16:14;10.93;;;5.88;;
6937;SDS011;40040;42.706;23.372;2022-08-25T09:19:06;15.18;;;4.88;;
6937;SDS011;40040;42.706;23.372;2022-08-25T09:21:45;12.48;;;5.53;;
6937;SDS011;40040;42.706;23.372;2022-08-25T09:24:22;16.38;;;5.68;;
6937;SDS011;40040;42.706;23.372;2022-08-25T09:27:04;13.65;;;4.80;;
6937;SDS011;40040;42.706;23.372;2022-08-25T09:29:43;15.48;;;5.50;;
6937;SDS011;40040;42.706;23.372;2022-08-25T09:32:19;10.88;;;4.85;;
6937;SDS011;40040;42.706;23.372;2022-08-25T09:34:47;10.20;;;4.68;;
6937;SDS011;40040;42.706;23.372;2022-08-25T09:37:17;6.90;;;3.88;;
6937;SDS011;40040;42.706;23.372;2022-08-25T09:39:45;12.02;;;4.15;;
6937;SDS011;40040;42.706;23.372;2022-08-25T09:42:13;14.50;;;4.65;;
6937;SDS011;40040;42.706;23.372;2022-08-25T09:44:41;12.98;;;3.78;;
6937;SDS011;40040;42.706;23.372;2022-08-25T09:47:14;9.93;;;3.65;;
6937;SDS011;40040;42.706;23.372;2022-08-25T09:49:47;12.60;;;3.85;;
6937;SDS011;40040;42.706;23.372;2022-08-25T09:52:18;15.32;;;3.70;;
6937;SDS011;40040;42.706;23.372;2022-08-25T09:54:49;9.60;;;3.95;;
6937;SDS011;40040;42.706;23.372;2022-08-25T09:57:28;14.40;;;4.60;;
6937;SDS011;40040;42.706;23.372;2022-08-25T10:00:08;12.85;;;4.10;;
6937;SDS011;40040;42.706;23.372;2022-08-25T10:02:37;12.90;;;4.05;;
6937;SDS011;40040;42.706;23.372;2022-08-25T10:05:16;9.20;;;3.80;;
6937;SDS011;40040;42.706;23.372;2022-08-25T10:07:49;9.73;;;3.78;;
6937;SDS011;40040;42.706;23.372;2022-08-25T10:10:28;16.40;;;4.10;;
6937;SDS011;40040;42.706;23.372;2022-08-25T10:12:59;14.43;;;4.18;;
6937;SDS011;40040;42.706;23.372;2022-08-25T10:15:28;14.27;;;4.75;;
6937;SDS011;40040;42.706;23.372;2022-08-25T10:18:18;18.95;;;4.43;;
6937;SDS011;40040;42.706;23.372;2022-08-25T10:21:06;9.10;;;3.60;;
6937;SDS011;40040;42.706;23.372;2022-08-25T10:23:36;12.25;;;3.45;;
6937;SDS011;40040;42.706;23.372;2022-08-25T10:26:10;11.45;;;3.47;;
6937;SDS011;40040;42.706;23.372;2022-08-25T10:28:48;6.57;;;3.47;;
6937;SDS011;40040;42.706;23.372;2022-08-25T10:31:26;15.82;;;4.05;;
6937;SDS011;40040;42.706;23.372;2022-08-25T10:34:05;17.10;;;3.78;;
6937;SDS011;40040;42.706;23.372;2022-08-25T10:36:46;12.98;;;3.35;;
6937;SDS011;40040;42.706;23.372;2022-08-25T10:39:28;14.10;;;3.42;;
6937;SDS011;40040;42.706;23.372;2022-08-25T10:42:03;12.73;;;3.22;;
6937;SDS011;40040;42.706;23.372;2022-08-25T10:44:45;14.82;;;3.97;;
6937;SDS011;40040;42.706;23.372;2022-08-25T10:47:43;12.55;;;3.17;;
6937;SDS011;40040;42.706;23.372;2022-08-25T10:50:21;14.02;;;3.80;;
6937;SDS011;40040;42.706;23.372;2022-08-25T10:53:04;9.40;;;3.22;;
6937;SDS011;40040;42.706;23.372;2022-08-25T10:55:54;9.23;;;3.40;;
6937;SDS011;40040;42.706;23.372;2022-08-25T10:58:34;9.80;;;3.78;;
6937;SDS011;40040;42.706;23.372;2022-08-25T11:01:24;13.65;;;3.88;;
6937;SDS011;40040;42.706;23.372;2022-08-25T11:04:02;11.40;;;4.20;;
6937;SDS011;40040;42.706;23.372;2022-08-25T11:06:36;9.80;;;3.67;;
6937;SDS011;40040;42.706;23.372;2022-08-25T11:09:08;11.73;;;3.67;;
6937;SDS011;40040;42.706;23.372;2022-08-25T11:11:40;15.68;;;4.07;;
6937;SDS011;40040;42.706;23.372;2022-08-25T11:14:14;8.63;;;3.85;;
6937;SDS011;40040;42.706;23.372;2022-08-25T11:16:50;17.42;;;4.22;;
6937;SDS011;40040;42.706;23.372;2022-08-25T11:19:21;9.45;;;3.90;;
6937;SDS011;40040;42.706;23.372;2022-08-25T11:21:57;9.85;;;4.10;;
6937;SDS011;40040;42.706;23.372;2022-08-25T11:24:41;7.88;;;3.78;;
6937;SDS011;40040;42.706;23.372;2022-08-25T11:27:17;9.52;;;4.00;;
6937;SDS011;40040;42.706;23.372;2022-08-25T11:29:55;12.27;;;3.92;;
6937;SDS011;40040;42.706;23.372;2022-08-25T11:32:30;12.02;;;4.22;;
6937;SDS011;40040;42.706;23.372;2022-08-25T11:34:59;12.05;;;4.03;;
6937;SDS011;40040;42.706;23.372;2022-08-25T11:37:29;7.20;;;4.22;;
6937;SDS011;40040;42.706;23.372;2022-08-25T11:40:03;12.98;;;4.18;;
6937;SDS011;40040;42.706;23.372;2022-08-25T11:42:52;8.52;;;4.25;;
6937;SDS011;40040;42.706;23.372;2022-08-25T11:45:39;8.38;;;4.10;;
6937;SDS011;40040;42.706;23.372;2022-08-25T11:48:19;4.50;;;3.50;;
6937;SDS011;40040;42.706;23.372;2022-08-25T11:50:55;8.65;;;4.10;;
6937;SDS011;40040;42.706;23.372;2022-08-25T11:53:26;12.32;;;3.90;;
6937;SDS011;40040;42.706;23.372;2022-08-25T11:55:55;10.27;;;4.20;;
6937;SDS011;40040;42.706;23.372;2022-08-25T11:58:36;11.57;;;4.22;;
6937;SDS011;40040;42.706;23.372;2022-08-25T12:01:11;10.15;;;4.47;;
6937;SDS011;40040;42.706;23.372;2022-08-25T12:04:31;9.65;;;3.88;;
6937;SDS011;40040;42.706;23.372;2022-08-25T12:10:11;11.63;;;3.90;;
6937;SDS011;40040;42.706;23.372;2022-08-25T12:12:56;6.43;;;3.30;;
6937;SDS011;40040;42.706;23.372;2022-08-25T12:15:25;6.55;;;3.40;;
6937;SDS011;40040;42.706;23.372;2022-08-25T12:18:11;9.80;;;3.97;;
6937;SDS011;40040;42.706;23.372;2022-08-25T12:23:37;11.18;;;4.10;;
6937;SDS011;40040;42.706;23.372;2022-08-25T12:26:07;11.57;;;3.80;;
6937;SDS011;40040;42.706;23.372;2022-08-25T12:28:46;8.40;;;3.88;;
6937;SDS011;40040;42.706;23.372;2022-08-25T12:31:36;8.90;;;3.53;;
6937;SDS011;40040;42.706;23.372;2022-08-25T12:34:21;10.07;;;3.60;;
6937;SDS011;40040;42.706;23.372;2022-08-25T12:37:03;6.70;;;3.38;;
6937;SDS011;40040;42.706;23.372;2022-08-25T12:39:41;9.35;;;3.70;;
6937;SDS011;40040;42.706;23.372;2022-08-25T12:42:18;16.25;;;3.72;;
6937;SDS011;40040;42.706;23.372;2022-08-25T12:47:38;7.38;;;3.80;;
6937;SDS011;40040;42.706;23.372;2022-08-25T12:53:09;6.43;;;3.60;;
6937;SDS011;40040;42.706;23.372;2022-08-25T12:55:39;9.88;;;3.90;;
6937;SDS011;40040;42.706;23.372;2022-08-25T12:58:09;8.65;;;3.47;;
6937;SDS011;40040;42.706;23.372;2022-08-25T13:00:45;14.50;;;3.75;;
6937;SDS011;40040;42.706;23.372;2022-08-25T13:03:36;14.77;;;4.18;;
6937;SDS011;40040;42.706;23.372;2022-08-25T13:06:26;16.42;;;3.88;;
6937;SDS011;40040;42.706;23.372;2022-08-25T13:09:18;7.28;;;3.75;;
6937;SDS011;40040;42.706;23.372;2022-08-25T13:12:08;7.70;;;3.38;;
6937;SDS011;40040;42.706;23.372;2022-08-25T13:14:41;9.40;;;3.35;;
6937;SDS011;40040;42.706;23.372;2022-08-25T13:17:10;11.85;;;3.92;;
6937;SDS011;40040;42.706;23.372;2022-08-25T13:19:50;10.00;;;3.60;;
6937;SDS011;40040;42.706;23.372;2022-08-25T13:22:17;6.07;;;3.50;;
6937;SDS011;40040;42.706;23.372;2022-08-25T13:24:47;11.48;;;3.88;;
6937;SDS011;40040;42.706;23.372;2022-08-25T13:27:18;8.82;;;3.47;;
6937;SDS011;40040;42.706;23.372;2022-08-25T13:29:51;8.20;;;3.60;;
6937;SDS011;40040;42.706;23.372;2022-08-25T13:32:25;9.98;;;3.85;;
6937;SDS011;40040;42.706;23.372;2022-08-25T13:35:06;9.20;;;3.85;;
6937;SDS011;40040;42.706;23.372;2022-08-25T13:37:43;7.10;;;3.25;;
6937;SDS011;40040;42.706;23.372;2022-08-25T13:40:13;12.10;;;3.58;;
6937;SDS011;40040;42.706;23.372;2022-08-25T13:42:42;10.70;;;3.53;;
6937;SDS011;40040;42.706;23.372;2022-08-25T13:45:12;6.15;;;3.63;;
6937;SDS011;40040;42.706;23.372;2022-08-25T13:47:42;13.50;;;3.78;;
6937;SDS011;40040;42.706;23.372;2022-08-25T13:50:15;8.13;;;3.53;;
6937;SDS011;40040;42.706;23.372;2022-08-25T13:52:46;13.85;;;4.03;;
6937;SDS011;40040;42.706;23.372;2022-08-25T13:55:22;6.85;;;3.38;;
6937;SDS011;40040;42.706;23.372;2022-08-25T13:57:51;7.88;;;3.47;;
6937;SDS011;40040;42.706;23.372;2022-08-25T14:00:29;7.97;;;3.25;;
6937;SDS011;40040;42.706;23.372;2022-08-25T14:02:59;11.73;;;3.45;;
6937;SDS011;40040;42.706;23.372;2022-08-25T14:05:35;9.85;;;3.30;;
6937;SDS011;40040;42.706;23.372;2022-08-25T14:08:07;12.15;;;3.58;;
6937;SDS011;40040;42.706;23.372;2022-08-25T14:10:52;13.65;;;3.72;;
6937;SDS011;40040;42.706;23.372;2022-08-25T14:13:31;10.15;;;4.10;;
6937;SDS011;40040;42.706;23.372;2022-08-25T14:16:05;11.23;;;3.97;;
6937;SDS011;40040;42.706;23.372;2022-08-25T14:18:33;10.82;;;3.78;;
6937;SDS011;40040;42.706;23.372;2022-08-25T14:21:02;13.73;;;3.63;;
6937;SDS011;40040;42.706;23.372;2022-08-25T14:23:35;14.10;;;3.70;;
6937;SDS011;40040;42.706;23.372;2022-08-25T14:26:05;11.10;;;3.83;;
6937;SDS011;40040;42.706;23.372;2022-08-25T14:28:33;9.30;;;4.10;;
6937;SDS011;40040;42.706;23.372;2022-08-25T14:31:01;12.55;;;3.35;;
6937;SDS011;40040;42.706;23.372;2022-08-25T14:33:34;11.20;;;3.53;;
6937;SDS011;40040;42.706;23.372;2022-08-25T14:36:04;8.13;;;3.67;;
6937;SDS011;40040;42.706;23.372;2022-08-25T14:38:31;15.75;;;3.88;;
6937;SDS011;40040;42.706;23.372;2022-08-25T14:41:00;7.57;;;3.20;;
6937;SDS011;40040;42.706;23.372;2022-08-25T14:43:29;9.68;;;3.53;;
6937;SDS011;40040;42.706;23.372;2022-08-25T14:45:56;7.82;;;3.38;;
6937;SDS011;40040;42.706;23.372;2022-08-25T14:48:24;10.38;;;4.07;;
6937;SDS011;40040;42.706;23.372;2022-08-25T14:50:56;11.02;;;3.60;;
6937;SDS011;40040;42.706;23.372;2022-08-25T14:53:25;14.07;;;3.75;;
6937;SDS011;40040;42.706;23.372;2022-08-25T14:55:53;15.30;;;4.28;;
6937;SDS011;40040;42.706;23.372;2022-08-25T14:58:20;9.80;;;3.72;;
6937;SDS011;40040;42.706;23.372;2022-08-25T15:00:51;8.15;;;3.38;;
6937;SDS011;40040;42.706;23.372;2022-08-25T15:03:21;10.98;;;3.75;;
6937;SDS011;40040;42.706;23.372;2022-08-25T15:05:53;12.68;;;4.10;;
6937;SDS011;40040;42.706;23.372;2022-08-25T15:08:20;13.48;;;4.18;;
6937;SDS011;40040;42.706;23.372;2022-08-25T15:11:05;16.17;;;4.00;;
6937;SDS011;40040;42.706;23.372;2022-08-25T15:13:38;10.95;;;3.88;;
6937;SDS011;40040;42.706;23.372;2022-08-25T15:16:07;10.20;;;3.45;;